Terminal Aerodrome Forecast
Issued by NWS Twin Cities, MN

Home | Current Version | Previous Version | Text Only | Print | Product List | Glossary On
Versions: 1 2 3 4 5 6 7 8 9 10 11 12 13 14
752
FTUS43 KMPX 251741
TAFSTC
TAF
KSTC 251741Z 2518/2618 22006KT P6SM SKC
     FM260300 19005KT P6SM SCT250
     FM261100 26007KT P6SM VCSH SCT040 BKN090
     FM261400 32013G23KT P6SM SCT040 BKN090=

USA.gov is the U.S. government's official web portal to all federal, state and local government web resources and services.